createdAt,value
2017-03-22T00:00:56.020Z,4.44
2017-03-22T00:01:57.038Z,4.45
2017-03-22T00:02:57.803Z,4.42
2017-03-22T00:03:58.569Z,4.49
2017-03-22T00:04:59.332Z,4.38
2017-03-22T00:06:00.103Z,4.41
2017-03-22T00:07:01.117Z,4.41
2017-03-22T00:08:01.883Z,4.38
2017-03-22T00:09:02.655Z,4.40
2017-03-22T00:10:03.419Z,4.40
2017-03-22T00:11:04.184Z,4.49
2017-03-22T00:12:05.202Z,4.40
2017-03-22T00:13:05.965Z,4.40
2017-03-22T00:14:06.732Z,4.38
2017-03-22T00:15:07.497Z,4.35
2017-03-22T00:16:08.264Z,4.41
2017-03-22T00:17:09.327Z,4.34
2017-03-22T00:18:10.094Z,4.40
2017-03-22T00:19:10.866Z,4.40
2017-03-22T00:20:11.627Z,4.38
2017-03-22T00:21:12.393Z,4.38
2017-03-22T00:22:13.457Z,4.40
2017-03-22T00:23:14.224Z,4.45
2017-03-22T00:24:14.995Z,4.45
2017-03-22T00:25:15.758Z,4.50
2017-03-22T00:26:16.714Z,4.48
2017-03-22T00:27:17.729Z,4.40
2017-03-22T00:28:18.494Z,4.37
2017-03-22T00:29:19.263Z,4.44
2017-03-22T00:30:20.028Z,4.40
2017-03-22T00:31:20.795Z,4.41
2017-03-22T00:32:21.861Z,4.42
2017-03-22T00:33:22.625Z,4.35
2017-03-22T00:34:23.391Z,4.38
2017-03-22T00:35:24.160Z,4.37
2017-03-22T00:36:24.927Z,4.32
2017-03-22T00:37:25.944Z,4.30
2017-03-22T00:38:26.716Z,4.31
2017-03-22T00:39:27.478Z,4.32
2017-03-22T00:40:28.245Z,4.30
2017-03-22T00:41:29.011Z,4.31
2017-03-22T00:42:30.025Z,4.24
2017-03-22T00:43:30.793Z,4.34
2017-03-22T00:44:31.561Z,4.31
2017-03-22T00:45:32.329Z,4.31
2017-03-22T00:46:33.095Z,4.34
2017-03-22T00:47:34.163Z,4.17
2017-03-22T00:48:34.928Z,4.17
2017-03-22T00:49:35.697Z,4.22
2017-03-22T00:50:36.464Z,4.10
2017-03-22T00:51:37.228Z,4.20
2017-03-22T00:52:38.244Z,4.23
2017-03-22T00:53:39.012Z,4.22
2017-03-22T00:54:39.778Z,4.17
2017-03-22T00:55:40.546Z,4.13
2017-03-22T00:56:41.317Z,4.13
2017-03-22T00:57:42.336Z,4.04
2017-03-22T00:58:43.103Z,4.05
2017-03-22T00:59:43.871Z,4.10
2017-03-22T01:00:44.636Z,4.04
2017-03-22T01:01:45.399Z,4.12
2017-03-22T01:02:46.416Z,4.04
2017-03-22T01:03:47.181Z,4.10
2017-03-22T01:04:47.947Z,4.04
2017-03-22T01:05:48.717Z,4.06
2017-03-22T01:06:49.478Z,4.05
2017-03-22T01:07:50.497Z,4.02
2017-03-22T01:08:51.262Z,4.02
2017-03-22T01:09:52.031Z,3.96
2017-03-22T01:10:52.800Z,3.96
2017-03-22T01:11:53.757Z,3.87
2017-03-22T01:12:54.777Z,3.92
2017-03-22T01:13:55.545Z,3.84
2017-03-22T01:14:56.311Z,3.91
2017-03-22T01:15:57.081Z,3.91
2017-03-22T01:16:57.842Z,3.88
2017-03-22T01:17:58.857Z,3.84
2017-03-22T01:18:59.626Z,3.81
2017-03-22T01:20:00.391Z,3.87
2017-03-22T01:21:01.154Z,3.84
2017-03-22T01:22:01.926Z,3.87
2017-03-22T01:23:02.939Z,3.73
2017-03-22T01:24:03.709Z,3.80
2017-03-22T01:25:04.474Z,3.77
2017-03-22T01:26:05.244Z,3.80
2017-03-22T01:27:06.007Z,3.81
2017-03-22T01:28:07.021Z,3.86
2017-03-22T01:29:07.790Z,3.80
2017-03-22T01:30:08.556Z,3.87
2017-03-22T01:31:09.322Z,3.76
2017-03-22T01:32:10.086Z,3.73
2017-03-22T01:33:11.105Z,3.76
2017-03-22T01:34:11.869Z,3.77
2017-03-22T01:35:12.635Z,3.70
2017-03-22T01:36:13.401Z,3.80
2017-03-22T01:37:14.169Z,3.69
2017-03-22T01:38:15.235Z,3.73
2017-03-22T01:39:16.005Z,3.73
2017-03-22T01:40:16.771Z,3.68
2017-03-22T01:41:17.535Z,3.69
2017-03-22T01:42:18.299Z,3.69
2017-03-22T01:43:19.366Z,3.66
2017-03-22T01:44:20.130Z,3.65
2017-03-22T01:45:21.089Z,3.69
2017-03-22T01:46:21.855Z,3.73
2017-03-22T01:47:22.618Z,3.66
2017-03-22T01:48:23.631Z,3.68
2017-03-22T01:49:24.397Z,3.73
2017-03-22T01:50:25.163Z,3.68
2017-03-22T01:51:25.924Z,3.68
2017-03-22T01:52:26.692Z,3.62
2017-03-22T01:53:27.707Z,3.58
2017-03-22T01:54:28.474Z,3.55
2017-03-22T01:55:29.239Z,3.68
2017-03-22T01:56:30.000Z,3.58
2017-03-22T01:57:30.768Z,3.55
2017-03-22T01:58:31.782Z,3.55
2017-03-22T01:59:32.551Z,3.58
2017-03-22T02:00:33.320Z,3.58
2017-03-22T02:01:34.085Z,3.58
2017-03-22T02:02:34.849Z,3.60
2017-03-22T02:03:35.867Z,3.45
2017-03-22T02:04:36.635Z,3.45
2017-03-22T02:05:37.401Z,3.58
2017-03-22T02:06:38.363Z,3.59
2017-03-22T02:07:39.166Z,3.45
2017-03-22T02:08:40.148Z,3.47
2017-03-22T02:09:40.917Z,3.42
2017-03-22T02:10:41.683Z,3.41
2017-03-22T02:11:42.449Z,3.42
2017-03-22T02:12:43.215Z,3.45
2017-03-22T02:13:44.233Z,3.41
2017-03-22T02:14:44.994Z,3.45
2017-03-22T02:15:45.759Z,3.47
2017-03-22T02:16:46.526Z,3.42
2017-03-22T02:17:47.294Z,3.45
2017-03-22T02:18:48.309Z,3.34
2017-03-22T02:19:49.072Z,3.41
2017-03-22T02:20:49.840Z,3.40
2017-03-22T02:21:50.605Z,3.47
2017-03-22T02:22:51.370Z,3.51
2017-03-22T02:23:52.386Z,3.59
2017-03-22T02:24:53.155Z,3.44
2017-03-22T02:25:53.951Z,3.36
2017-03-22T02:26:54.690Z,3.44
2017-03-22T02:27:55.454Z,3.41
2017-03-22T02:28:56.472Z,3.47
2017-03-22T02:29:57.239Z,3.42
2017-03-22T02:30:58.004Z,3.42
2017-03-22T02:31:58.771Z,3.41
2017-03-22T02:32:59.538Z,3.41
2017-03-22T02:34:00.610Z,3.41
2017-03-22T02:35:01.370Z,3.41
2017-03-22T02:36:02.135Z,3.41
2017-03-22T02:37:02.901Z,3.48
2017-03-22T02:38:03.670Z,3.50
2017-03-22T02:39:04.688Z,3.53
2017-03-22T02:40:05.452Z,3.53
2017-03-22T02:41:06.220Z,3.60
2017-03-22T02:42:06.983Z,3.58
2017-03-22T02:43:07.748Z,3.65
2017-03-22T02:44:08.764Z,3.66
2017-03-22T02:45:09.528Z,3.58
2017-03-22T02:46:10.297Z,3.69
2017-03-22T02:47:11.062Z,3.69
2017-03-22T02:48:12.019Z,3.66
2017-03-22T02:49:13.035Z,3.76
2017-03-22T02:50:13.801Z,3.63
2017-03-22T02:51:14.570Z,3.66
2017-03-22T02:52:15.330Z,3.69
2017-03-22T02:53:16.099Z,3.69
2017-03-22T02:54:17.114Z,3.68
2017-03-22T02:55:17.876Z,3.69
2017-03-22T02:56:18.644Z,3.66
2017-03-22T02:57:19.412Z,3.62
2017-03-22T02:58:20.177Z,3.62
2017-03-22T02:59:21.192Z,3.60
2017-03-22T03:00:21.960Z,3.48
2017-03-22T03:01:22.723Z,3.41
2017-03-22T03:02:23.488Z,3.42
2017-03-22T03:03:24.253Z,3.40
2017-03-22T03:04:25.323Z,3.41
2017-03-22T03:05:26.080Z,3.37
2017-03-22T03:06:26.844Z,3.31
2017-03-22T03:07:27.608Z,3.37
2017-03-22T03:08:28.372Z,3.41
2017-03-22T03:09:29.389Z,3.28
2017-03-22T03:10:30.151Z,3.26
2017-03-22T03:11:30.916Z,3.23
2017-03-22T03:12:31.684Z,3.19
2017-03-22T03:13:32.444Z,3.16
2017-03-22T03:14:33.459Z,3.19
2017-03-22T03:15:34.223Z,3.18
2017-03-22T03:16:34.986Z,3.19
2017-03-22T03:17:35.752Z,3.18
2017-03-22T03:18:36.518Z,3.11
2017-03-22T03:19:37.536Z,3.10
2017-03-22T03:20:38.298Z,3.08
2017-03-22T03:21:39.065Z,3.08
2017-03-22T03:22:39.831Z,3.05
2017-03-22T03:23:40.592Z,3.04
2017-03-22T03:24:41.659Z,3.01
2017-03-22T03:25:42.424Z,2.98
2017-03-22T03:26:43.189Z,2.93
2017-03-22T03:27:43.958Z,2.97
2017-03-22T03:28:44.719Z,2.83
2017-03-22T03:29:45.735Z,2.92
2017-03-22T03:30:46.498Z,3.00
2017-03-22T03:31:47.264Z,2.89
2017-03-22T03:32:48.029Z,2.90
2017-03-22T03:33:48.799Z,2.93
2017-03-22T03:34:49.809Z,2.93
2017-03-22T03:35:50.572Z,2.95
2017-03-22T03:36:51.336Z,2.93
2017-03-22T03:37:52.098Z,2.89
2017-03-22T03:38:52.865Z,2.97
2017-03-22T03:39:53.877Z,2.95
2017-03-22T03:40:54.640Z,2.90
2017-03-22T03:41:55.404Z,2.95
2017-03-22T03:42:56.168Z,2.90
2017-03-22T03:43:56.927Z,2.95
2017-03-22T03:44:57.942Z,2.97
2017-03-22T03:45:58.706Z,3.00
2017-03-22T03:46:59.472Z,2.87
2017-03-22T03:48:00.235Z,2.86
2017-03-22T03:49:01.000Z,2.86
2017-03-22T03:50:02.018Z,2.83
2017-03-22T03:51:02.779Z,2.87
2017-03-22T03:52:03.546Z,2.92
2017-03-22T03:53:04.310Z,2.83
2017-03-22T03:54:05.075Z,2.80
2017-03-22T03:55:06.089Z,2.87
2017-03-22T03:56:06.852Z,2.85
2017-03-22T03:57:07.647Z,2.77
2017-03-22T03:58:08.381Z,2.77
2017-03-22T03:59:09.146Z,2.80
2017-03-22T04:00:10.160Z,2.79
2017-03-22T04:01:10.922Z,2.79
2017-03-22T04:02:11.688Z,2.77
2017-03-22T04:03:12.453Z,2.82
2017-03-22T04:04:13.216Z,2.79
2017-03-22T04:05:14.230Z,2.75
2017-03-22T04:06:14.998Z,2.79
2017-03-22T04:07:15.763Z,2.80
2017-03-22T04:08:16.525Z,2.72
2017-03-22T04:09:17.289Z,2.74
2017-03-22T04:10:18.304Z,2.75
2017-03-22T04:11:19.069Z,2.77
2017-03-22T04:12:19.831Z,2.68
2017-03-22T04:13:20.783Z,2.68
2017-03-22T04:14:21.542Z,2.74
2017-03-22T04:15:22.554Z,2.71
2017-03-22T04:16:23.320Z,2.65
2017-03-22T04:17:24.083Z,2.62
2017-03-22T04:18:24.847Z,2.61
2017-03-22T04:19:25.608Z,2.62
2017-03-22T04:20:26.622Z,2.56
2017-03-22T04:21:27.353Z,2.62
2017-03-22T04:22:28.119Z,2.65
2017-03-22T04:23:28.885Z,2.54
2017-03-22T04:24:29.648Z,2.61
2017-03-22T04:25:30.665Z,2.53
2017-03-22T04:26:31.426Z,2.54
2017-03-22T04:27:32.191Z,2.51
2017-03-22T04:28:32.958Z,2.54
2017-03-22T04:29:33.719Z,2.65
2017-03-22T04:30:34.735Z,2.60
2017-03-22T04:31:35.502Z,2.67
2017-03-22T04:32:36.267Z,2.53
2017-03-22T04:33:37.029Z,2.50
2017-03-22T04:34:37.789Z,2.54
2017-03-22T04:35:38.804Z,2.54
2017-03-22T04:36:39.567Z,2.47
2017-03-22T04:37:40.329Z,2.51
2017-03-22T04:38:41.094Z,2.50
2017-03-22T04:39:41.859Z,2.47
2017-03-22T04:40:42.873Z,2.50
2017-03-22T04:41:43.822Z,2.56
2017-03-22T04:42:44.584Z,2.60
2017-03-22T04:43:45.346Z,2.51
2017-03-22T04:44:46.112Z,2.54
2017-03-22T04:45:47.171Z,2.42
2017-03-22T04:46:47.932Z,2.47
2017-03-22T04:47:48.695Z,2.42
2017-03-22T04:48:49.459Z,2.38
2017-03-22T04:49:50.224Z,2.38
2017-03-22T04:50:51.288Z,2.44
2017-03-22T04:51:52.053Z,2.44
2017-03-22T04:52:52.817Z,2.43
2017-03-22T04:53:53.584Z,2.43
2017-03-22T04:54:54.351Z,2.36
2017-03-22T04:55:55.362Z,2.43
2017-03-22T04:56:56.126Z,2.25
2017-03-22T04:57:56.890Z,2.33
2017-03-22T04:58:57.654Z,2.43
2017-03-22T04:59:58.423Z,2.28
2017-03-22T05:00:59.434Z,2.36
2017-03-22T05:02:00.198Z,2.31
2017-03-22T05:03:00.963Z,2.46
2017-03-22T05:04:01.727Z,2.32
2017-03-22T05:05:02.491Z,2.33
2017-03-22T05:06:03.504Z,2.44
2017-03-22T05:07:04.270Z,2.33
2017-03-22T05:08:05.030Z,2.31
2017-03-22T05:09:05.797Z,2.31
2017-03-22T05:10:06.565Z,2.31
2017-03-22T05:11:07.580Z,2.44
2017-03-22T05:12:08.349Z,2.44
2017-03-22T05:13:09.116Z,2.54
2017-03-22T05:14:09.879Z,2.43
2017-03-22T05:15:10.647Z,2.44
2017-03-22T05:16:11.661Z,2.54
2017-03-22T05:17:12.428Z,2.43
2017-03-22T05:18:13.197Z,2.43
2017-03-22T05:19:13.960Z,2.44
2017-03-22T05:20:14.726Z,2.39
2017-03-22T05:21:15.740Z,2.35
2017-03-22T05:22:16.503Z,2.24
2017-03-22T05:23:17.271Z,2.38
2017-03-22T05:24:18.036Z,2.31
2017-03-22T05:25:18.801Z,2.31
2017-03-22T05:26:19.819Z,2.31
2017-03-22T05:27:20.585Z,2.28
2017-03-22T05:28:21.352Z,2.22
2017-03-22T05:29:22.125Z,2.31
2017-03-22T05:30:22.881Z,2.25
2017-03-22T05:31:23.898Z,2.22
2017-03-22T05:32:24.663Z,2.26
2017-03-22T05:33:25.437Z,2.15
2017-03-22T05:34:26.203Z,2.15
2017-03-22T05:35:26.969Z,2.20
2017-03-22T05:36:27.990Z,2.15
2017-03-22T05:37:28.759Z,2.17
2017-03-22T05:38:29.524Z,2.14
2017-03-22T05:39:30.292Z,2.13
2017-03-22T05:40:31.060Z,2.11
2017-03-22T05:41:32.080Z,2.07
2017-03-22T05:42:32.850Z,2.06
2017-03-22T05:43:33.617Z,2.10
2017-03-22T05:44:34.388Z,2.04
2017-03-22T05:45:35.156Z,2.08
2017-03-22T05:46:36.178Z,2.07
2017-03-22T05:47:36.949Z,2.10
2017-03-22T05:48:37.717Z,2.15
2017-03-22T05:49:38.487Z,2.32
2017-03-22T05:50:39.253Z,2.28
2017-03-22T05:51:40.275Z,2.38
2017-03-22T05:52:41.049Z,2.39
2017-03-22T05:53:41.811Z,2.44
2017-03-22T05:54:42.581Z,2.43
2017-03-22T05:55:43.348Z,2.43
2017-03-22T05:56:44.365Z,2.42
2017-03-22T05:57:45.322Z,2.42
2017-03-22T05:58:46.086Z,2.43
2017-03-22T05:59:46.854Z,2.43
2017-03-22T06:00:47.625Z,2.44
2017-03-22T06:01:48.641Z,2.39
2017-03-22T06:02:49.412Z,2.43
2017-03-22T06:03:50.178Z,2.54
2017-03-22T06:04:50.952Z,2.50
2017-03-22T06:05:51.721Z,2.69
2017-03-22T06:06:52.740Z,2.69
2017-03-22T06:07:53.507Z,2.77
2017-03-22T06:08:54.278Z,2.72
2017-03-22T06:09:55.049Z,2.89
2017-03-22T06:10:55.818Z,2.90
2017-03-22T06:11:56.836Z,2.90
2017-03-22T06:12:57.606Z,2.98
2017-03-22T06:13:58.372Z,2.90
2017-03-22T06:14:59.142Z,2.97
2017-03-22T06:15:59.911Z,3.04
2017-03-22T06:17:00.934Z,3.16
2017-03-22T06:18:01.705Z,3.26
2017-03-22T06:19:02.472Z,3.37
2017-03-22T06:20:03.245Z,3.36
2017-03-22T06:21:04.016Z,3.45
2017-03-22T06:22:05.035Z,3.62
2017-03-22T06:23:05.805Z,3.59
2017-03-22T06:24:06.577Z,3.60
2017-03-22T06:25:07.350Z,3.47
2017-03-22T06:26:08.118Z,3.62
2017-03-22T06:27:09.190Z,3.56
2017-03-22T06:28:09.958Z,3.68
2017-03-22T06:29:10.732Z,3.65
2017-03-22T06:30:11.512Z,3.58
2017-03-22T06:31:12.280Z,3.76
2017-03-22T06:32:13.299Z,3.77
2017-03-22T06:33:14.071Z,3.81
2017-03-22T06:34:14.847Z,3.87
2017-03-22T06:35:15.621Z,3.91
2017-03-22T06:36:16.391Z,3.86
2017-03-22T06:37:17.414Z,3.81
2017-03-22T06:38:18.187Z,3.95
2017-03-22T06:39:18.957Z,3.96
2017-03-22T06:40:19.731Z,4.08
2017-03-22T06:41:20.505Z,4.05
2017-03-22T06:42:21.578Z,4.05
2017-03-22T06:43:22.352Z,4.13
2017-03-22T06:44:23.123Z,4.32
2017-03-22T06:45:23.896Z,4.22
2017-03-22T06:46:24.671Z,4.40
2017-03-22T06:47:25.695Z,4.48
2017-03-22T06:48:26.471Z,4.41
2017-03-22T06:49:27.241Z,4.41
2017-03-22T06:50:28.017Z,4.52
2017-03-22T06:51:28.792Z,4.53
2017-03-22T06:52:29.816Z,4.59
2017-03-22T06:53:30.594Z,4.77
2017-03-22T06:54:31.366Z,4.90
2017-03-22T06:55:32.138Z,5.05
2017-03-22T06:56:32.910Z,5.08
2017-03-22T06:57:33.935Z,5.25
2017-03-22T06:58:34.898Z,5.39
2017-03-22T06:59:35.675Z,5.41
2017-03-22T07:00:36.451Z,5.48
2017-03-22T07:01:37.224Z,5.46
2017-03-22T07:02:38.302Z,5.35
2017-03-22T07:03:39.077Z,5.64
2017-03-22T07:04:39.854Z,5.79
2017-03-22T07:05:40.629Z,5.94
2017-03-22T07:06:41.411Z,6.16
2017-03-22T07:07:42.438Z,6.46
2017-03-22T07:08:43.212Z,6.41
2017-03-22T07:09:43.991Z,6.04
2017-03-22T07:10:44.771Z,6.12
2017-03-22T07:11:45.549Z,6.27
2017-03-22T07:12:46.579Z,5.93
2017-03-22T07:13:47.354Z,5.76
2017-03-22T07:14:48.130Z,5.94
2017-03-22T07:15:48.908Z,5.93
2017-03-22T07:16:49.683Z,5.98
2017-03-22T07:17:50.713Z,6.27
2017-03-22T07:18:51.489Z,6.39
2017-03-22T07:19:52.269Z,6.56
2017-03-22T07:20:53.048Z,6.75
2017-03-22T07:21:53.830Z,6.97
2017-03-22T07:22:54.901Z,7.21
2017-03-22T07:23:56.598Z,7.72
2017-03-22T07:24:57.381Z,7.80
2017-03-22T07:25:58.162Z,7.88
2017-03-22T07:26:58.938Z,7.82
2017-03-22T07:27:59.968Z,7.54
2017-03-22T07:29:00.751Z,7.97
2017-03-22T07:30:01.530Z,8.10
2017-03-22T07:31:02.307Z,8.13
2017-03-22T07:32:03.089Z,8.06
2017-03-22T07:33:04.121Z,8.23
2017-03-22T07:34:04.907Z,8.12
2017-03-22T07:35:05.685Z,8.36
2017-03-22T07:36:06.475Z,8.13
2017-03-22T07:37:07.257Z,8.26
2017-03-22T07:38:08.525Z,8.18
2017-03-22T07:39:09.307Z,8.08
2017-03-22T07:40:10.092Z,8.09
2017-03-22T07:41:10.871Z,8.27
2017-03-22T07:42:11.653Z,8.36
2017-03-22T07:43:12.684Z,8.45
2017-03-22T07:44:13.467Z,8.64
2017-03-22T07:45:14.246Z,8.66
2017-03-22T07:46:15.030Z,8.95
2017-03-22T07:47:15.814Z,9.18
2017-03-22T07:48:16.845Z,9.39
2017-03-22T07:49:17.630Z,9.68
2017-03-22T07:50:18.412Z,9.69
2017-03-22T07:51:19.192Z,9.40
2017-03-22T07:52:19.979Z,9.58
2017-03-22T07:53:21.015Z,9.68
2017-03-22T07:54:21.794Z,9.99
2017-03-22T07:55:22.578Z,10.38
2017-03-22T07:56:23.360Z,10.35
2017-03-22T07:57:24.145Z,10.72
2017-03-22T07:58:25.233Z,11.11
2017-03-22T07:59:26.023Z,11.40
2017-03-22T08:00:26.806Z,11.10
2017-03-22T08:01:27.591Z,10.67
2017-03-22T08:02:28.377Z,10.53
2017-03-22T08:03:29.412Z,10.59
2017-03-22T08:04:30.199Z,10.75
2017-03-22T08:05:30.986Z,10.97
2017-03-22T08:06:31.771Z,10.61
2017-03-22T08:07:32.556Z,10.84
2017-03-22T08:08:33.641Z,11.07
2017-03-22T08:09:34.426Z,11.30
2017-03-22T08:10:35.217Z,11.43
2017-03-22T08:11:36.003Z,11.63
2017-03-22T08:12:36.789Z,11.66
2017-03-22T08:13:37.827Z,11.33
2017-03-22T08:14:38.616Z,10.97
2017-03-22T08:15:39.402Z,11.30
2017-03-22T08:16:40.189Z,11.84
2017-03-22T08:17:40.978Z,11.50
2017-03-22T08:18:42.015Z,11.55
2017-03-22T08:19:42.801Z,11.40
2017-03-22T08:20:43.588Z,11.66
2017-03-22T08:21:44.377Z,12.12
2017-03-22T08:22:45.167Z,11.77
2017-03-22T08:23:46.210Z,12.20
2017-03-22T08:24:46.999Z,12.17
2017-03-22T08:25:47.784Z,12.35
2017-03-22T08:26:48.572Z,13.16
2017-03-22T08:27:49.550Z,12.91
2017-03-22T08:28:50.587Z,13.37
2017-03-22T08:29:51.377Z,13.79
2017-03-22T08:30:52.169Z,14.11
2017-03-22T08:31:52.961Z,14.32
2017-03-22T08:32:53.753Z,14.59
2017-03-22T08:33:54.843Z,14.51
2017-03-22T08:34:55.632Z,13.78
2017-03-22T08:35:56.420Z,13.33
2017-03-22T08:36:57.208Z,12.79
2017-03-22T08:37:57.999Z,12.95
2017-03-22T08:38:59.094Z,13.01
2017-03-22T08:39:59.888Z,12.67
2017-03-22T08:41:00.675Z,12.62
2017-03-22T08:42:01.468Z,12.57
2017-03-22T08:43:02.253Z,12.68
2017-03-22T08:44:03.347Z,12.53
2017-03-22T08:45:04.136Z,12.25
2017-03-22T08:46:04.925Z,12.07
2017-03-22T08:47:05.715Z,12.20
2017-03-22T08:48:06.506Z,12.58
2017-03-22T08:49:07.548Z,13.18
2017-03-22T08:50:08.342Z,13.70
2017-03-22T08:51:09.135Z,14.15
2017-03-22T08:52:09.930Z,14.26
2017-03-22T08:53:10.724Z,13.95
2017-03-22T08:54:11.765Z,14.33
2017-03-22T08:55:12.561Z,14.29
2017-03-22T08:56:13.357Z,14.66
2017-03-22T08:57:14.151Z,14.72
2017-03-22T08:58:14.945Z,14.17
2017-03-22T08:59:16.048Z,14.55
2017-03-22T09:00:16.836Z,14.54
2017-03-22T09:01:17.635Z,14.10
2017-03-22T09:02:18.430Z,14.03
2017-03-22T09:03:19.225Z,13.47
2017-03-22T09:04:20.323Z,13.37
2017-03-22T09:05:21.116Z,13.15
2017-03-22T09:06:21.915Z,13.12
2017-03-22T09:07:22.708Z,12.78
2017-03-22T09:08:23.507Z,12.90
2017-03-22T09:09:24.556Z,13.27
2017-03-22T09:10:25.350Z,13.16
2017-03-22T09:11:26.144Z,13.59
2017-03-22T09:12:26.941Z,14.03
2017-03-22T09:13:27.734Z,13.50
2017-03-22T09:14:28.781Z,13.41
2017-03-22T09:15:29.578Z,13.92
2017-03-22T09:16:30.374Z,14.15
2017-03-22T09:17:31.173Z,14.51
2017-03-22T09:18:31.969Z,14.81
2017-03-22T09:19:33.017Z,14.78
2017-03-22T09:20:33.817Z,14.60
2017-03-22T09:21:34.610Z,14.72
2017-03-22T09:22:35.402Z,14.03
2017-03-22T09:23:36.199Z,14.25
2017-03-22T09:24:37.243Z,14.72
2017-03-22T09:25:38.039Z,14.91
2017-03-22T09:26:38.837Z,14.62
2017-03-22T09:27:39.636Z,13.96
2017-03-22T09:28:40.437Z,14.15
2017-03-22T09:29:41.474Z,13.54
2017-03-22T09:30:42.269Z,13.77
2017-03-22T09:31:43.069Z,13.53
2017-03-22T09:32:43.862Z,13.44
2017-03-22T09:33:44.659Z,12.85
2017-03-22T09:34:45.703Z,13.57
2017-03-22T09:35:46.500Z,13.25
2017-03-22T09:36:47.292Z,12.91
2017-03-22T09:37:48.086Z,13.31
2017-03-22T09:38:48.914Z,12.79
2017-03-22T09:39:49.930Z,12.65
2017-03-22T09:40:50.731Z,12.57
2017-03-22T09:41:51.521Z,13.03
2017-03-22T09:42:52.318Z,13.03
2017-03-22T09:43:53.118Z,13.16
2017-03-22T09:44:54.163Z,13.31
2017-03-22T09:45:54.954Z,13.33
2017-03-22T09:46:55.750Z,14.05
2017-03-22T09:47:56.543Z,14.72
2017-03-22T09:48:57.336Z,14.82
2017-03-22T09:49:58.381Z,14.99
2017-03-22T09:50:59.177Z,14.12
2017-03-22T09:51:59.976Z,14.11
2017-03-22T09:53:00.768Z,14.77
2017-03-22T09:54:01.563Z,14.82
2017-03-22T09:55:02.609Z,14.69
2017-03-22T09:56:03.400Z,14.85
2017-03-22T09:57:04.193Z,15.47
2017-03-22T09:58:04.989Z,15.80
2017-03-22T09:59:05.779Z,16.56
2017-03-22T10:00:06.824Z,15.64
2017-03-22T10:01:07.618Z,15.98
2017-03-22T10:02:08.408Z,14.89
2017-03-22T10:03:09.203Z,14.81
2017-03-22T10:04:09.993Z,13.75
2017-03-22T10:05:11.037Z,13.52
2017-03-22T10:06:11.830Z,13.75
2017-03-22T10:07:12.621Z,14.36
2017-03-22T10:08:13.413Z,14.14
2017-03-22T10:09:14.206Z,14.04
2017-03-22T10:10:15.253Z,13.50
2017-03-22T10:11:16.047Z,13.83
2017-03-22T10:12:16.840Z,14.00
2017-03-22T10:13:17.638Z,14.55
2017-03-22T10:14:18.432Z,14.28
2017-03-22T10:15:19.475Z,14.36
2017-03-22T10:16:20.269Z,14.48
2017-03-22T10:17:21.063Z,14.86
2017-03-22T10:18:21.852Z,14.37
2017-03-22T10:19:22.645Z,14.18
2017-03-22T10:20:23.689Z,14.10
2017-03-22T10:21:24.487Z,13.68
2017-03-22T10:22:25.276Z,14.15
2017-03-22T10:23:26.073Z,14.55
2017-03-22T10:24:26.869Z,14.94
2017-03-22T10:25:27.912Z,14.88
2017-03-22T10:26:28.707Z,15.09
2017-03-22T10:27:29.506Z,14.70
2017-03-22T10:28:30.300Z,15.09
2017-03-22T10:29:31.092Z,15.46
2017-03-22T10:30:32.137Z,14.96
2017-03-22T10:31:32.935Z,15.46
2017-03-22T10:32:33.729Z,15.86
2017-03-22T10:33:34.523Z,16.31
2017-03-22T10:34:35.316Z,16.31
2017-03-22T10:35:36.361Z,15.62
2017-03-22T10:36:37.152Z,14.94
2017-03-22T10:37:37.946Z,15.25
2017-03-22T10:38:38.740Z,15.25
2017-03-22T10:39:39.534Z,15.90
2017-03-22T10:40:40.580Z,16.24
2017-03-22T10:41:41.375Z,16.58
2017-03-22T10:42:42.166Z,16.09
2017-03-22T10:43:42.959Z,15.58
2017-03-22T10:44:43.754Z,15.46
2017-03-22T10:45:44.796Z,15.91
2017-03-22T10:46:45.588Z,15.88
2017-03-22T10:47:46.385Z,15.19
2017-03-22T10:48:47.179Z,14.89
2017-03-22T10:49:47.976Z,14.82
2017-03-22T10:50:49.074Z,15.29
2017-03-22T10:51:49.866Z,15.49
2017-03-22T10:52:50.661Z,15.61
2017-03-22T10:53:51.452Z,15.64
2017-03-22T10:54:52.245Z,15.57
2017-03-22T10:55:53.295Z,15.28
2017-03-22T10:56:54.084Z,14.99
2017-03-22T10:57:54.878Z,14.59
2017-03-22T10:58:55.678Z,14.29
2017-03-22T10:59:56.467Z,14.82
2017-03-22T11:00:57.515Z,15.19
2017-03-22T11:01:58.309Z,15.31
2017-03-22T11:02:59.102Z,15.46
2017-03-22T11:03:59.897Z,16.41
2017-03-22T11:05:00.688Z,15.86
2017-03-22T11:06:01.738Z,15.46
2017-03-22T11:07:02.536Z,15.40
2017-03-22T11:08:03.330Z,15.07
2017-03-22T11:09:04.122Z,15.03
2017-03-22T11:10:04.916Z,15.24
2017-03-22T11:11:05.962Z,15.31
2017-03-22T11:12:06.757Z,15.88
2017-03-22T11:13:07.549Z,15.83
2017-03-22T11:14:08.346Z,16.23
2017-03-22T11:15:09.145Z,16.50
2017-03-22T11:16:10.187Z,17.01
2017-03-22T11:17:10.980Z,16.51
2017-03-22T11:18:11.776Z,15.55
2017-03-22T11:19:12.573Z,15.35
2017-03-22T11:20:13.371Z,15.35
2017-03-22T11:21:14.415Z,14.68
2017-03-22T11:22:15.206Z,14.97
2017-03-22T11:23:16.003Z,15.86
2017-03-22T11:24:16.797Z,15.40
2017-03-22T11:25:17.591Z,14.97
2017-03-22T11:26:18.636Z,14.88
2017-03-22T11:27:19.432Z,14.86
2017-03-22T11:28:20.228Z,15.62
2017-03-22T11:29:21.025Z,15.97
2017-03-22T11:30:21.820Z,16.99
2017-03-22T11:31:22.863Z,16.50
2017-03-22T11:32:23.658Z,16.21
2017-03-22T11:33:24.451Z,16.39
2017-03-22T11:34:25.249Z,16.75
2017-03-22T11:35:26.054Z,17.06
2017-03-22T11:36:27.091Z,17.02
2017-03-22T11:37:27.890Z,16.78
2017-03-22T11:38:28.688Z,16.39
2017-03-22T11:39:29.481Z,16.61
2017-03-22T11:40:30.283Z,16.74
2017-03-22T11:41:31.324Z,16.31
2017-03-22T11:42:32.117Z,16.33
2017-03-22T11:43:32.909Z,16.20
2017-03-22T11:44:33.707Z,15.52
2017-03-22T11:45:34.499Z,14.86
2017-03-22T11:46:35.594Z,14.62
2017-03-22T11:47:36.385Z,14.28
2017-03-22T11:48:37.177Z,14.05
2017-03-22T11:49:37.971Z,14.03
2017-03-22T11:50:38.765Z,13.62
2017-03-22T11:51:39.805Z,13.27
2017-03-22T11:52:40.595Z,13.46
2017-03-22T11:53:41.390Z,12.76
2017-03-22T11:54:42.186Z,12.75
2017-03-22T11:55:42.980Z,12.24
2017-03-22T11:56:44.026Z,12.06
2017-03-22T11:57:44.811Z,11.66
2017-03-22T11:58:45.604Z,11.83
2017-03-22T11:59:46.395Z,12.02
2017-03-22T12:00:47.182Z,12.03
2017-03-22T12:01:48.270Z,12.13
2017-03-22T12:02:49.058Z,12.17
2017-03-22T12:03:49.847Z,12.20
2017-03-22T12:04:50.633Z,12.13
2017-03-22T12:05:51.419Z,12.27
2017-03-22T12:06:52.462Z,11.86
2017-03-22T12:07:53.246Z,11.80
2017-03-22T12:08:54.037Z,11.86
2017-03-22T12:09:54.819Z,11.69
2017-03-22T12:10:55.603Z,11.55
2017-03-22T12:11:56.639Z,11.59
2017-03-22T12:12:57.426Z,11.50
2017-03-22T12:13:58.213Z,11.60
2017-03-22T12:14:58.999Z,11.83
2017-03-22T12:15:59.788Z,11.97
2017-03-22T12:17:00.823Z,12.07
2017-03-22T12:18:01.610Z,12.17
2017-03-22T12:19:02.396Z,11.99
2017-03-22T12:20:03.179Z,11.72
2017-03-22T12:21:03.963Z,11.70
2017-03-22T12:22:04.998Z,11.65
2017-03-22T12:23:05.779Z,11.73
2017-03-22T12:24:06.566Z,11.99
2017-03-22T12:25:07.350Z,11.90
2017-03-22T12:26:08.135Z,11.90
2017-03-22T12:27:09.168Z,12.12
2017-03-22T12:28:09.951Z,12.20
2017-03-22T12:29:10.735Z,12.22
2017-03-22T12:30:11.517Z,12.61
2017-03-22T12:31:12.304Z,12.47
2017-03-22T12:32:13.386Z,12.06
2017-03-22T12:33:14.170Z,12.27
2017-03-22T12:34:14.951Z,12.25
2017-03-22T12:35:15.740Z,12.25
2017-03-22T12:36:16.523Z,12.22
2017-03-22T12:37:17.560Z,12.18
2017-03-22T12:38:18.342Z,12.27
2017-03-22T12:39:19.128Z,12.25
2017-03-22T12:40:19.910Z,12.27
2017-03-22T12:41:20.698Z,12.18
2017-03-22T12:42:21.732Z,12.18
2017-03-22T12:43:22.519Z,12.73
2017-03-22T12:44:23.304Z,13.12
2017-03-22T12:45:24.092Z,13.35
2017-03-22T12:46:24.879Z,13.99
2017-03-22T12:47:25.919Z,14.37
2017-03-22T12:48:26.702Z,14.41
2017-03-22T12:49:27.486Z,14.20
2017-03-22T12:50:28.272Z,13.68
2017-03-22T12:51:29.055Z,13.62
2017-03-22T12:52:30.144Z,13.08
2017-03-22T12:53:30.933Z,12.97
2017-03-22T12:54:31.717Z,13.18
2017-03-22T12:55:32.508Z,13.46
2017-03-22T12:56:33.296Z,13.67
2017-03-22T12:57:34.332Z,14.18
2017-03-22T12:58:35.122Z,14.25
2017-03-22T12:59:35.908Z,14.41
2017-03-22T13:00:36.693Z,14.40
2017-03-22T13:01:37.478Z,14.20
2017-03-22T13:02:38.515Z,14.23
2017-03-22T13:03:39.301Z,14.36
2017-03-22T13:04:40.086Z,14.20
2017-03-22T13:05:40.874Z,13.65
2017-03-22T13:06:41.662Z,13.38
2017-03-22T13:07:42.705Z,12.78
2017-03-22T13:08:43.487Z,12.78
2017-03-22T13:09:44.275Z,12.86
2017-03-22T13:10:45.063Z,12.79
2017-03-22T13:11:45.847Z,12.65
2017-03-22T13:12:46.887Z,12.70
2017-03-22T13:13:47.671Z,12.85
2017-03-22T13:14:48.460Z,13.03
2017-03-22T13:15:49.246Z,12.95
2017-03-22T13:16:50.029Z,12.73
2017-03-22T13:17:51.064Z,12.83
2017-03-22T13:18:52.035Z,12.80